Time;durP1;ratioP1;P1;durP2;ratioP2;P2;SDS_P1;SDS_P2;PMS_P1;PMS_P2;Temp;Humidity;BMP_temperature;BMP_pressure;BME280_temperature;BME280_humidity;BME280_pressure;Samples;Min_cycle;Max_cycle;Signal;HPM_P1;HPM_P2
2023/08/17 00:00:22;;;;;;;3.33;2.35;;;23.60;99.90;;;;;;5089058;28;20195;-32
2023/08/17 00:02:50;;;;;;;3.28;2.10;;;23.60;99.90;;;;;;5070665;28;20215;-32
2023/08/17 00:05:22;;;;;;;5.15;2.05;;;23.50;99.90;;;;;;5070436;28;20199;-32
2023/08/17 00:07:52;;;;;;;5.18;2.25;;;23.50;99.90;;;;;;5088513;28;20202;-32
2023/08/17 00:10:31;;;;;;;3.20;1.80;;;23.40;99.90;;;;;;5088406;28;20195;-33
2023/08/17 00:13:03;;;;;;;2.70;1.83;;;23.40;99.90;;;;;;5088184;28;20214;-32
2023/08/17 00:15:41;;;;;;;4.35;2.28;;;23.30;99.90;;;;;;5070263;28;20191;-32
2023/08/17 00:18:11;;;;;;;4.40;1.90;;;23.30;99.90;;;;;;5069959;28;20230;-32
2023/08/17 00:20:42;;;;;;;2.45;1.90;;;23.30;99.90;;;;;;5070492;28;20199;-33
2023/08/17 00:23:10;;;;;;;3.63;2.20;;;23.30;99.90;;;;;;5069997;28;20241;-32
2023/08/17 00:25:39;;;;;;;3.50;1.90;;;23.20;99.90;;;;;;5088461;28;20307;-32
2023/08/17 00:28:06;;;;;;;2.38;2.03;;;23.20;99.90;;;;;;5053360;28;20237;-32
2023/08/17 00:30:37;;;;;;;2.55;1.85;;;23.20;99.90;;;;;;5069532;28;20504;-32
2023/08/17 00:33:05;;;;;;;5.25;2.00;;;23.20;99.90;;;;;;5069699;28;20199;-32
2023/08/17 00:35:37;;;;;;;3.88;2.13;;;23.10;99.90;;;;;;5069962;28;20298;-32
2023/08/17 00:38:06;;;;;;;2.10;1.90;;;23.10;99.90;;;;;;5088291;28;20673;-32
2023/08/17 00:40:34;;;;;;;2.25;1.75;;;23.00;99.90;;;;;;5088277;28;20203;-32
2023/08/17 00:43:04;;;;;;;2.17;1.98;;;23.00;99.90;;;;;;5052972;28;20569;-32
2023/08/17 00:45:44;;;;;;;2.78;1.95;;;23.00;99.90;;;;;;5053903;28;20211;-32
2023/08/17 00:48:13;;;;;;;4.05;2.08;;;23.00;99.90;;;;;;5069380;28;20206;-32
2023/08/17 00:50:46;;;;;;;3.40;1.88;;;23.00;99.90;;;;;;5069683;28;20218;-32
2023/08/17 00:53:16;;;;;;;3.63;2.03;;;22.90;99.90;;;;;;5087745;28;20206;-32
2023/08/17 00:55:46;;;;;;;2.50;2.08;;;22.90;99.90;;;;;;5088168;28;20320;-32
2023/08/17 00:58:16;;;;;;;2.47;1.83;;;22.90;99.90;;;;;;5058904;28;20216;-32
2023/08/17 01:00:43;;;;;;;3.58;2.10;;;22.80;99.90;;;;;;5047088;28;20200;-32
2023/08/17 01:03:11;;;;;;;5.65;2.05;;;22.80;99.90;;;;;;5050410;28;20727;-32
2023/08/17 01:05:38;;;;;;;3.63;1.80;;;22.90;99.90;;;;;;5062936;28;20188;-32
2023/08/17 01:08:05;;;;;;;2.97;1.80;;;22.90;99.90;;;;;;5034718;28;20260;-32
2023/08/17 01:10:59;;;;;;;2.53;1.80;;;22.90;99.90;;;;;;5049083;28;20319;-32
2023/08/17 01:13:47;;;;;;;2.92;1.90;;;22.90;99.90;;;;;;5066969;28;20257;-32
2023/08/17 01:16:31;;;;;;;3.28;1.88;;;22.80;99.90;;;;;;5053012;28;20239;-32
2023/08/17 01:19:06;;;;;;;3.15;1.83;;;22.80;99.90;;;;;;5053876;28;20212;-31
2023/08/17 01:21:54;;;;;;;2.80;2.05;;;22.80;99.90;;;;;;5066572;28;20233;-32
2023/08/17 01:24:23;;;;;;;3.45;2.10;;;22.80;99.90;;;;;;5064853;28;20681;-32
2023/08/17 01:26:51;;;;;;;3.47;1.90;;;22.80;99.90;;;;;;5048366;28;20208;-31
2023/08/17 01:29:18;;;;;;;2.72;2.33;;;22.80;99.90;;;;;;5048546;28;20203;-32
2023/08/17 01:31:58;;;;;;;3.13;1.90;;;22.80;99.90;;;;;;5047987;28;20249;-32
2023/08/17 01:34:29;;;;;;;2.42;1.95;;;22.80;99.90;;;;;;5048092;28;20249;-32
2023/08/17 01:37:01;;;;;;;2.60;2.00;;;22.80;99.90;;;;;;5032556;28;20207;-32
2023/08/17 01:39:43;;;;;;;3.75;1.63;;;22.80;99.90;;;;;;5065246;28;20253;-32
2023/08/17 01:42:12;;;;;;;2.03;1.88;;;22.80;99.90;;;;;;5047652;28;20685;-32
2023/08/17 01:44:43;;;;;;;3.03;2.38;;;22.70;99.90;;;;;;5066172;28;20281;-24
2023/08/17 01:47:11;;;;;;;4.57;2.03;;;22.70;99.90;;;;;;5048403;28;20204;-24
2023/08/17 01:49:39;;;;;;;5.50;2.30;;;22.70;99.90;;;;;;5066967;28;20184;-24
2023/08/17 01:52:06;;;;;;;2.42;1.92;;;22.70;99.90;;;;;;5066358;28;20302;-24
2023/08/17 01:54:36;;;;;;;4.00;2.20;;;22.70;99.90;;;;;;5066166;28;20264;-24
2023/08/17 01:57:04;;;;;;;3.35;1.75;;;22.70;99.90;;;;;;5066135;28;20237;-24
2023/08/17 01:59:33;;;;;;;3.90;2.10;;;22.60;99.90;;;;;;5066255;28;20333;-24
2023/08/17 02:02:00;;;;;;;4.40;2.08;;;22.60;99.90;;;;;;5048049;28;20220;-24
2023/08/17 02:04:30;;;;;;;3.28;2.22;;;22.60;99.90;;;;;;5047766;28;20238;-24
2023/08/17 02:07:02;;;;;;;3.25;1.88;;;22.60;99.90;;;;;;5065941;28;20203;-24
2023/08/17 02:09:37;;;;;;;7.75;2.45;;;22.60;99.90;;;;;;5065893;28;20686;-24
2023/08/17 02:12:04;;;;;;;2.35;1.80;;;22.50;99.90;;;;;;5064471;28;20207;-24
2023/08/17 02:14:36;;;;;;;2.28;1.65;;;22.50;99.90;;;;;;5064614;28;20249;-24
2023/08/17 02:17:05;;;;;;;3.13;1.80;;;22.50;99.90;;;;;;5065941;28;20198;-24
2023/08/17 02:19:34;;;;;;;2.08;1.88;;;22.50;99.90;;;;;;5048153;28;20976;-24
2023/08/17 02:22:07;;;;;;;3.53;2.20;;;22.50;99.90;;;;;;5032004;28;20708;-24
2023/08/17 02:24:34;;;;;;;3.35;1.90;;;22.50;99.90;;;;;;5064798;28;20234;-24
2023/08/17 02:27:02;;;;;;;4.03;2.10;;;22.50;99.90;;;;;;5065824;28;20531;-24
2023/08/17 02:29:31;;;;;;;4.93;2.17;;;22.50;99.90;;;;;;5066027;28;20481;-24
2023/08/17 02:32:02;;;;;;;2.80;1.77;;;22.50;99.90;;;;;;5065843;28;20226;-24
2023/08/17 02:34:31;;;;;;;5.65;1.98;;;22.40;99.90;;;;;;5047627;28;20261;-24
2023/08/17 02:37:03;;;;;;;3.00;1.88;;;22.40;99.90;;;;;;5065526;28;20215;-24
2023/08/17 02:39:33;;;;;;;3.88;2.22;;;22.50;99.90;;;;;;5047540;28;20226;-24
2023/08/17 02:42:03;;;;;;;2.90;2.28;;;22.40;99.90;;;;;;5031171;28;20204;-24
2023/08/17 02:44:32;;;;;;;2.50;2.20;;;22.40;99.90;;;;;;5047358;28;20285;-24
2023/08/17 02:47:04;;;;;;;3.58;2.15;;;22.30;99.90;;;;;;5047536;28;20257;-24
2023/08/17 02:49:35;;;;;;;2.88;1.70;;;22.30;99.90;;;;;;5065525;28;20293;-24
2023/08/17 02:52:03;;;;;;;4.13;2.38;;;22.30;99.90;;;;;;5066506;28;20199;-24
2023/08/17 02:54:31;;;;;;;5.47;2.03;;;22.30;99.90;;;;;;5051500;28;20623;-24
2023/08/17 02:57:00;;;;;;;5.00;2.30;;;22.30;99.90;;;;;;5056873;28;20210;-24
2023/08/17 02:59:34;;;;;;;4.55;2.20;;;22.30;99.90;;;;;;5089396;28;20207;-24
2023/08/17 03:02:04;;;;;;;3.05;1.88;;;22.30;99.90;;;;;;5090195;28;20221;-24
2023/08/17 03:04:32;;;;;;;3.03;2.03;;;22.30;99.90;;;;;;5071641;28;20284;-31
2023/08/17 03:07:00;;;;;;;3.30;1.98;;;22.20;99.90;;;;;;5089432;28;20195;-32
2023/08/17 03:09:27;;;;;;;5.22;2.15;;;22.20;99.90;;;;;;5089825;28;20282;-24
2023/08/17 03:11:56;;;;;;;3.72;1.83;;;22.20;99.90;;;;;;5089450;28;20234;-24
2023/08/17 03:14:26;;;;;;;4.75;2.20;;;22.20;99.90;;;;;;5089920;28;20217;-24
2023/08/17 03:16:53;;;;;;;6.65;2.30;;;22.20;99.90;;;;;;5089251;28;20245;-24
2023/08/17 03:19:22;;;;;;;3.72;1.80;;;22.20;99.90;;;;;;5055846;28;20214;-24
2023/08/17 03:21:55;;;;;;;2.97;2.00;;;22.20;99.90;;;;;;5071879;28;20214;-24
2023/08/17 03:24:24;;;;;;;4.10;2.13;;;22.20;99.90;;;;;;5089674;28;20678;-24
2023/08/17 03:26:54;;;;;;;3.20;2.22;;;22.20;99.90;;;;;;5089157;28;20205;-24
2023/08/17 03:29:23;;;;;;;3.63;2.00;;;22.20;99.90;;;;;;5088982;28;20727;-24
2023/08/17 03:31:53;;;;;;;3.70;2.25;;;22.10;99.90;;;;;;5071016;28;20199;-24
2023/08/17 03:34:25;;;;;;;2.88;2.20;;;22.10;99.90;;;;;;5089168;28;20203;-24
2023/08/17 03:36:52;;;;;;;4.07;2.22;;;22.10;99.90;;;;;;5071243;28;20696;-24
2023/08/17 03:39:21;;;;;;;4.03;2.35;;;22.10;99.90;;;;;;5089187;28;20899;-24
2023/08/17 03:41:51;;;;;;;4.63;2.33;;;22.00;99.90;;;;;;5070710;28;20207;-24
2023/08/17 03:44:18;;;;;;;3.67;2.45;;;21.90;99.90;;;;;;5070611;28;20700;-32
2023/08/17 03:46:55;;;;;;;2.97;2.03;;;21.90;99.90;;;;;;5088839;28;20667;-32
2023/08/17 03:49:25;;;;;;;4.20;2.35;;;21.90;99.90;;;;;;5070370;28;20219;-32
2023/08/17 03:51:54;;;;;;;4.07;2.30;;;21.90;99.90;;;;;;5054753;28;20272;-32
2023/08/17 03:54:24;;;;;;;5.25;2.40;;;21.80;99.90;;;;;;5088781;28;20230;-32
2023/08/17 03:56:52;;;;;;;3.60;2.28;;;21.80;99.90;;;;;;5070294;28;20629;-32
2023/08/17 03:59:21;;;;;;;4.80;2.35;;;21.80;99.90;;;;;;5070704;28;20418;-32
2023/08/17 04:01:53;;;;;;;6.00;2.22;;;21.80;99.90;;;;;;5088631;28;20227;-32
2023/08/17 04:04:25;;;;;;;5.20;2.00;;;21.80;99.90;;;;;;5087779;28;20592;-32
2023/08/17 04:06:52;;;;;;;2.95;2.30;;;21.80;99.90;;;;;;5053896;28;20715;-32
2023/08/17 04:09:19;;;;;;;3.22;1.77;;;21.80;99.90;;;;;;5088348;28;20711;-32
2023/08/17 04:11:51;;;;;;;5.07;2.45;;;21.80;99.90;;;;;;5088520;28;20755;-24
2023/08/17 04:14:21;;;;;;;5.20;2.30;;;21.80;99.90;;;;;;5088904;28;20242;-24
2023/08/17 04:16:48;;;;;;;3.45;1.83;;;21.80;99.90;;;;;;5070274;28;20272;-24
2023/08/17 04:19:17;;;;;;;4.82;1.95;;;21.80;99.90;;;;;;5088198;28;20218;-24
2023/08/17 04:21:47;;;;;;;2.67;1.90;;;21.80;99.90;;;;;;5088217;28;20268;-24
2023/08/17 04:24:20;;;;;;;4.78;2.33;;;21.80;99.90;;;;;;5069688;28;20195;-24
2023/08/17 04:26:51;;;;;;;3.95;2.10;;;21.80;99.90;;;;;;5070355;28;20275;-24
2023/08/17 04:29:23;;;;;;;3.72;2.42;;;21.70;99.90;;;;;;5087989;28;20287;-24
2023/08/17 04:31:50;;;;;;;3.33;2.15;;;21.70;99.90;;;;;;5070542;28;20245;-24
2023/08/17 04:34:20;;;;;;;3.53;2.40;;;21.70;99.90;;;;;;5070235;28;20227;-24
2023/08/17 04:36:55;;;;;;;3.30;2.00;;;21.70;99.90;;;;;;5053770;28;20205;-24
2023/08/17 04:39:25;;;;;;;3.40;2.17;;;21.70;99.90;;;;;;5053887;28;20219;-24
2023/08/17 04:41:54;;;;;;;3.50;2.45;;;21.70;99.90;;;;;;5069527;28;20657;-24
2023/08/17 04:44:22;;;;;;;4.05;2.03;;;21.70;99.90;;;;;;5069472;28;20237;-24
2023/08/17 04:46:51;;;;;;;3.08;2.30;;;21.70;99.90;;;;;;5069801;28;20680;-24
2023/08/17 04:49:20;;;;;;;4.30;2.28;;;21.60;99.90;;;;;;5037580;28;20322;-25
2023/08/17 04:51:48;;;;;;;7.10;2.40;;;21.60;99.90;;;;;;5069804;28;20218;-25
2023/08/17 04:54:15;;;;;;;4.15;2.45;;;21.60;99.90;;;;;;5087913;28;20566;-24
2023/08/17 04:56:43;;;;;;;5.50;2.40;;;21.60;99.90;;;;;;5069149;28;20202;-24
2023/08/17 04:59:10;;;;;;;2.75;1.92;;;21.60;99.90;;;;;;5069130;28;20252;-24
2023/08/17 05:01:40;;;;;;;3.45;2.30;;;21.60;99.90;;;;;;5087274;28;20268;-24
2023/08/17 05:04:11;;;;;;;4.43;2.20;;;21.60;99.90;;;;;;5087200;28;20198;-24
2023/08/17 05:06:38;;;;;;;4.15;2.22;;;21.60;99.90;;;;;;5087302;28;20229;-24
2023/08/17 05:09:06;;;;;;;4.30;2.40;;;21.60;99.90;;;;;;5069167;28;20695;-24
2023/08/17 05:11:35;;;;;;;4.47;2.30;;;21.60;99.90;;;;;;5087347;28;20199;-24
2023/08/17 05:14:02;;;;;;;4.55;2.30;;;21.60;99.90;;;;;;5068879;28;20191;-24
2023/08/17 05:16:32;;;;;;;7.70;2.22;;;21.60;99.90;;;;;;5067889;28;20222;-25
2023/08/17 05:18:59;;;;;;;6.28;2.53;;;21.60;99.90;;;;;;5068835;28;20248;-24
2023/08/17 05:21:32;;;;;;;3.63;2.38;;;21.60;99.90;;;;;;5086955;28;20214;-24
2023/08/17 05:23:59;;;;;;;3.42;2.20;;;21.60;99.90;;;;;;5086807;28;20304;-24
2023/08/17 05:26:26;;;;;;;5.55;2.40;;;21.60;99.90;;;;;;5087043;28;20226;-24
2023/08/17 05:28:56;;;;;;;5.97;2.47;;;21.60;99.90;;;;;;5069187;28;20620;-24
2023/08/17 05:31:23;;;;;;;4.65;2.55;;;21.70;99.90;;;;;;5052194;28;20636;-24
2023/08/17 05:33:55;;;;;;;9.65;3.08;;;21.60;99.90;;;;;;5068509;28;20202;-24
2023/08/17 05:36:25;;;;;;;4.15;2.45;;;21.60;99.90;;;;;;5086527;28;20216;-24
2023/08/17 05:38:54;;;;;;;3.13;2.38;;;21.60;99.90;;;;;;5086321;28;20272;-24
2023/08/17 05:41:23;;;;;;;5.40;2.67;;;21.60;99.90;;;;;;5052018;28;20210;-24
2023/08/17 05:43:52;;;;;;;4.22;2.30;;;21.70;99.90;;;;;;5068394;28;20239;-24
2023/08/17 05:46:22;;;;;;;5.57;2.80;;;21.60;99.90;;;;;;5068368;28;20215;-24
2023/08/17 05:48:50;;;;;;;5.53;2.63;;;21.70;99.90;;;;;;5086173;28;20219;-24
2023/08/17 05:51:17;;;;;;;5.13;2.53;;;21.60;99.90;;;;;;5068109;28;20207;-24
2023/08/17 05:53:46;;;;;;;4.88;2.90;;;21.60;99.90;;;;;;5052355;28;20202;-24
2023/08/17 05:56:15;;;;;;;3.42;2.90;;;21.60;99.90;;;;;;5068047;28;20214;-24
2023/08/17 05:58:43;;;;;;;3.78;2.35;;;21.60;99.90;;;;;;5086746;28;20708;-24
2023/08/17 06:01:11;;;;;;;4.95;2.70;;;21.60;99.90;;;;;;5086663;28;20280;-24
2023/08/17 06:03:38;;;;;;;8.35;3.15;;;21.60;99.90;;;;;;5068532;28;20664;-24
2023/08/17 06:06:09;;;;;;;6.43;2.80;;;21.70;99.90;;;;;;5086194;28;20607;-24
2023/08/17 06:08:36;;;;;;;6.30;2.95;;;21.70;99.90;;;;;;5086483;28;20198;-24
2023/08/17 06:11:05;;;;;;;6.20;2.80;;;21.70;99.90;;;;;;5067952;28;20514;-25
2023/08/17 06:13:35;;;;;;;8.70;3.00;;;21.70;99.90;;;;;;5067797;28;20207;-24
2023/08/17 06:16:07;;;;;;;6.70;2.88;;;21.70;99.90;;;;;;5067758;28;20205;-24
2023/08/17 06:18:37;;;;;;;11.48;3.47;;;21.70;99.90;;;;;;5085942;28;20252;-24
2023/08/17 06:21:06;;;;;;;12.30;4.28;;;21.70;99.90;;;;;;5068071;28;20195;-24
2023/08/17 06:23:33;;;;;;;6.90;3.25;;;21.70;99.90;;;;;;5067788;28;20217;-24
2023/08/17 06:26:01;;;;;;;4.25;2.50;;;21.70;99.90;;;;;;5067537;28;20292;-24
2023/08/17 06:28:33;;;;;;;5.95;2.65;;;21.70;99.90;;;;;;5085097;28;20209;-24
2023/08/17 06:31:00;;;;;;;6.97;2.70;;;21.70;99.90;;;;;;5059690;28;20214;-24
2023/08/17 06:33:30;;;;;;;7.10;2.80;;;21.70;99.90;;;;;;5067809;28;20629;-24
2023/08/17 06:35:58;;;;;;;4.93;2.58;;;21.70;99.90;;;;;;5085777;28;20206;-25
2023/08/17 06:38:25;;;;;;;4.70;2.13;;;21.70;99.90;;;;;;5085915;28;20215;-24
2023/08/17 06:40:52;;;;;;;5.13;3.05;;;21.70;99.90;;;;;;5034686;28;20247;-24
2023/08/17 06:43:20;;;;;;;6.50;3.03;;;21.70;99.90;;;;;;5085468;28;20245;-24
2023/08/17 06:45:50;;;;;;;7.93;3.20;;;21.70;99.90;;;;;;5050933;28;20226;-25
2023/08/17 06:48:21;;;;;;;9.35;4.28;;;21.70;99.90;;;;;;5067828;28;20211;-25
2023/08/17 06:50:56;;;;;;;6.47;3.10;;;21.70;99.90;;;;;;5068431;28;20216;-24
2023/08/17 06:53:24;;;;;;;7.78;3.92;;;21.70;99.90;;;;;;5085384;28;20214;-25
2023/08/17 06:55:53;;;;;;;4.25;3.08;;;21.70;99.90;;;;;;5085537;28;20589;-25
2023/08/17 06:58:27;;;;;;;8.48;3.40;;;21.60;99.90;;;;;;5067699;28;20232;-24
2023/08/17 07:01:01;;;;;;;6.93;3.20;;;21.60;99.90;;;;;;5085722;28;20199;-24
2023/08/17 07:03:31;;;;;;;8.85;3.78;;;21.60;99.90;;;;;;5068076;28;20285;-25
2023/08/17 07:05:58;;;;;;;12.55;4.30;;;21.60;99.90;;;;;;5085217;28;20223;-25
2023/08/17 07:08:32;;;;;;;8.57;3.30;;;21.60;99.90;;;;;;5085336;28;20190;-24
2023/08/17 07:11:03;;;;;;;7.80;3.63;;;21.60;99.90;;;;;;5085379;28;20225;-25
2023/08/17 07:13:31;;;;;;;5.63;3.53;;;21.60;99.90;;;;;;5085435;28;20644;-25
2023/08/17 07:16:00;;;;;;;7.18;3.42;;;21.60;99.90;;;;;;5067925;28;20231;-25
2023/08/17 07:18:29;;;;;;;8.85;3.25;;;21.60;99.90;;;;;;5067692;28;20717;-24
2023/08/17 07:20:59;;;;;;;7.38;3.30;;;21.60;99.90;;;;;;5068059;28;20641;-33
2023/08/17 07:23:26;;;;;;;6.65;2.85;;;21.60;99.90;;;;;;5085316;28;20770;-32
2023/08/17 07:25:53;;;;;;;6.40;3.20;;;21.60;99.90;;;;;;5066734;28;20226;-32
2023/08/17 07:28:23;;;;;;;4.95;3.22;;;21.60;99.90;;;;;;5067031;28;20743;-32
2023/08/17 07:30:55;;;;;;;5.65;3.17;;;21.60;99.90;;;;;;5067306;28;20684;-32
2023/08/17 07:33:31;;;;;;;7.80;3.05;;;21.70;99.90;;;;;;5037483;28;20218;-32
2023/08/17 07:36:06;;;;;;;4.93;3.00;;;21.70;99.90;;;;;;5085138;28;20199;-32
2023/08/17 07:38:38;;;;;;;7.93;3.40;;;21.70;99.90;;;;;;5085535;28;20199;-33
2023/08/17 07:41:08;;;;;;;8.20;3.22;;;21.80;99.90;;;;;;5071069;28;20578;-33
2023/08/17 07:43:37;;;;;;;7.88;3.40;;;21.80;99.90;;;;;;5088616;28;20241;-32
2023/08/17 07:46:05;;;;;;;8.73;3.47;;;21.80;99.90;;;;;;5070483;28;20787;-32
2023/08/17 07:48:34;;;;;;;11.27;3.92;;;21.90;99.90;;;;;;5088830;28;20647;-32
2023/08/17 07:51:06;;;;;;;6.18;3.47;;;21.90;99.90;;;;;;5088701;28;20218;-32
2023/08/17 07:53:35;;;;;;;7.50;3.28;;;21.90;99.90;;;;;;5070751;28;20195;-32
2023/08/17 07:56:03;;;;;;;9.55;3.80;;;22.00;99.90;;;;;;5088777;28;20290;-32
2023/08/17 07:58:35;;;;;;;6.28;3.13;;;22.00;99.90;;;;;;5088378;28;20211;-32
2023/08/17 08:01:03;;;;;;;7.32;3.10;;;22.00;99.90;;;;;;5088215;28;20227;-33
2023/08/17 08:03:33;;;;;;;6.38;3.65;;;22.00;99.90;;;;;;5088505;28;20211;-32
2023/08/17 08:06:00;;;;;;;5.95;3.20;;;22.10;99.90;;;;;;5070087;28;20238;-32
2023/08/17 08:08:27;;;;;;;4.57;2.85;;;22.10;99.90;;;;;;5070070;28;20239;-32
2023/08/17 08:10:59;;;;;;;9.27;3.35;;;22.10;99.90;;;;;;5070316;28;20195;-32
2023/08/17 08:13:26;;;;;;;4.78;2.90;;;22.10;99.90;;;;;;5088555;28;20676;-32
2023/08/17 08:15:54;;;;;;;8.23;3.25;;;22.20;99.90;;;;;;5069721;28;20230;-33
2023/08/17 08:18:24;;;;;;;7.75;3.20;;;22.20;99.90;;;;;;5088150;28;20214;-33
2023/08/17 08:20:51;;;;;;;6.43;3.28;;;22.30;99.90;;;;;;5087833;28;20688;-33
2023/08/17 08:23:24;;;;;;;5.53;3.50;;;22.30;99.90;;;;;;5088240;28;20203;-33
2023/08/17 08:25:51;;;;;;;8.55;3.92;;;22.40;99.90;;;;;;5069621;28;20222;-33
2023/08/17 08:28:20;;;;;;;10.13;4.47;;;22.40;99.90;;;;;;5070706;28;20698;-33
2023/08/17 08:30:48;;;;;;;10.48;5.30;;;22.50;99.90;;;;;;5088266;28;20206;-33
2023/08/17 08:33:17;;;;;;;10.30;5.40;;;22.50;99.90;;;;;;5088183;28;20291;-33
2023/08/17 08:35:51;;;;;;;11.10;5.07;;;22.50;99.90;;;;;;5053038;28;20221;-33
2023/08/17 08:38:29;;;;;;;12.82;5.43;;;22.60;99.90;;;;;;5071703;28;20296;-33
2023/08/17 08:40:59;;;;;;;9.25;4.70;;;22.60;99.90;;;;;;5070243;28;20614;-33
2023/08/17 08:43:26;;;;;;;11.77;6.07;;;22.70;99.90;;;;;;5068941;28;20746;-32
2023/08/17 08:45:58;;;;;;;10.88;6.20;;;22.70;99.90;;;;;;5087408;28;20234;-33
2023/08/17 08:48:27;;;;;;;13.95;6.80;;;22.80;99.90;;;;;;5052893;28;20203;-33
2023/08/17 08:51:07;;;;;;;10.80;5.90;;;22.80;99.90;;;;;;5087460;28;20210;-33
2023/08/17 08:53:45;;;;;;;10.60;6.03;;;22.90;99.90;;;;;;5087347;28;20234;-33
2023/08/17 08:56:13;;;;;;;10.60;6.55;;;22.80;99.90;;;;;;5087272;28;20248;-33
2023/08/17 08:58:44;;;;;;;14.02;7.35;;;22.90;99.90;;;;;;5068858;28;20221;-33
2023/08/17 09:01:12;;;;;;;12.38;7.18;;;23.00;99.90;;;;;;5052706;28;20207;-33
2023/08/17 09:03:42;;;;;;;12.85;7.00;;;23.00;99.90;;;;;;5069583;28;20258;-33
2023/08/17 09:06:11;;;;;;;11.70;6.63;;;23.00;99.90;;;;;;5088025;28;20242;-33
2023/08/17 09:08:39;;;;;;;13.07;7.63;;;23.00;99.90;;;;;;5087488;28;20302;-33
2023/08/17 09:11:06;;;;;;;12.48;7.82;;;23.00;99.90;;;;;;5068879;28;20257;-33
2023/08/17 09:13:40;;;;;;;11.40;7.07;;;23.00;99.90;;;;;;5087071;28;20286;-33
2023/08/17 09:16:10;;;;;;;9.80;7.10;;;23.00;99.90;;;;;;5086836;28;20764;-32
2023/08/17 09:18:40;;;;;;;13.52;7.97;;;23.00;99.90;;;;;;5087115;28;20280;-32
2023/08/17 09:21:07;;;;;;;11.63;7.35;;;23.00;99.90;;;;;;5087358;28;20820;-33
2023/08/17 09:23:40;;;;;;;10.88;7.15;;;23.00;99.90;;;;;;5086649;28;20707;-33
2023/08/17 09:26:13;;;;;;;12.65;6.78;;;23.00;99.90;;;;;;5068403;28;20218;-32
2023/08/17 09:28:40;;;;;;;10.82;6.60;;;23.00;99.90;;;;;;5068474;28;20205;-33
2023/08/17 09:31:08;;;;;;;13.07;6.93;;;23.00;99.90;;;;;;5086809;28;20199;-32
2023/08/17 09:33:35;;;;;;;8.95;6.47;;;23.10;99.90;;;;;;5068137;28;20198;-33
2023/08/17 09:36:03;;;;;;;9.68;6.50;;;23.10;99.90;;;;;;5068157;28;20813;-33
2023/08/17 09:38:32;;;;;;;11.32;7.00;;;23.20;99.90;;;;;;5068787;28;20215;-32
2023/08/17 09:41:00;;;;;;;15.80;6.57;;;23.20;99.90;;;;;;5087028;28;20211;-32
2023/08/17 09:43:33;;;;;;;10.27;7.38;;;23.30;99.90;;;;;;5086806;28;20526;-32
2023/08/17 09:46:03;;;;;;;12.15;8.50;;;23.30;99.90;;;;;;5086641;28;20893;-32
2023/08/17 09:48:30;;;;;;;10.40;8.35;;;23.30;99.90;;;;;;5067959;28;20250;-33
2023/08/17 09:51:02;;;;;;;10.48;8.38;;;23.30;99.90;;;;;;5068447;28;20294;-32
2023/08/17 09:53:34;;;;;;;16.63;8.75;;;23.40;99.90;;;;;;5067767;28;20692;-32
2023/08/17 09:56:02;;;;;;;12.45;8.20;;;23.40;99.90;;;;;;5086343;28;20214;-33
2023/08/17 09:58:29;;;;;;;9.70;8.27;;;23.50;99.90;;;;;;5051463;28;20206;-33
2023/08/17 10:01:00;;;;;;;11.98;8.13;;;23.60;99.90;;;;;;5086224;28;20195;-33
2023/08/17 10:03:39;;;;;;;11.45;6.80;;;23.70;99.90;;;;;;5085732;28;20198;-32
2023/08/17 10:06:09;;;;;;;8.65;6.63;;;23.70;99.90;;;;;;5067585;28;20729;-33
2023/08/17 10:08:49;;;;;;;9.88;7.05;;;23.80;99.90;;;;;;5085741;28;20194;-32
2023/08/17 10:11:21;;;;;;;9.70;6.10;;;23.90;99.90;;;;;;5085892;28;20198;-32
2023/08/17 10:13:58;;;;;;;7.68;6.82;;;24.00;99.90;;;;;;5067501;28;20223;-32
2023/08/17 10:16:43;;;;;;;8.52;6.28;;;24.10;99.90;;;;;;5085544;28;20199;-32
2023/08/17 10:19:17;;;;;;;7.93;6.18;;;24.10;99.90;;;;;;5086334;28;20237;-32
2023/08/17 10:22:07;;;;;;;8.35;6.68;;;24.10;99.90;;;;;;5067943;28;20234;-32
2023/08/17 10:24:41;;;;;;;6.85;6.15;;;24.20;99.90;;;;;;5067371;28;20279;-32
2023/08/17 10:27:16;;;;;;;6.25;5.53;;;24.20;99.90;;;;;;5085823;28;20225;-32
2023/08/17 10:29:50;;;;;;;10.75;5.93;;;24.30;99.90;;;;;;5085470;28;20202;-32
2023/08/17 10:32:18;;;;;;;12.68;5.97;;;24.30;99.90;;;;;;5067378;28;20206;-33
2023/08/17 10:34:51;;;;;;;8.38;6.95;;;24.40;99.90;;;;;;5067819;28;20717;-32
2023/08/17 10:37:21;;;;;;;6.85;6.15;;;24.40;99.90;;;;;;5085562;28;20224;-32
2023/08/17 10:39:49;;;;;;;7.32;5.95;;;24.40;99.90;;;;;;5067161;28;20254;-32
2023/08/17 10:42:36;;;;;;;8.02;5.80;;;24.40;99.90;;;;;;5067325;28;20309;-33
2023/08/17 10:45:30;;;;;;;7.70;5.90;;;24.50;99.90;;;;;;5084864;28;20238;-32
2023/08/17 10:48:07;;;;;;;8.02;5.82;;;24.50;99.90;;;;;;5085415;28;20596;-32
2023/08/17 10:50:40;;;;;;;9.45;5.70;;;24.50;99.90;;;;;;5085934;28;20607;-32
2023/08/17 10:53:16;;;;;;;10.10;6.00;;;24.50;99.90;;;;;;5067749;28;20207;-32
2023/08/17 10:55:52;;;;;;;8.90;7.28;;;24.60;99.90;;;;;;5085616;28;20272;-32
2023/08/17 10:58:19;;;;;;;11.18;7.50;;;24.60;99.90;;;;;;5085458;28;20319;-32
2023/08/17 11:00:48;;;;;;;10.50;7.53;;;24.60;99.90;;;;;;5067141;28;20191;-32
2023/08/17 11:03:22;;;;;;;10.32;6.63;;;24.60;99.90;;;;;;5085081;28;20752;-33
2023/08/17 11:06:13;;;;;;;12.25;7.38;;;24.70;99.90;;;;;;5085571;28;20202;-32
2023/08/17 11:08:53;;;;;;;11.55;7.32;;;24.70;99.90;;;;;;5067013;28;20198;-32
2023/08/17 11:11:25;;;;;;;8.63;7.68;;;24.70;99.90;;;;;;5065682;28;20206;-32
2023/08/17 11:13:53;;;;;;;9.88;8.02;;;24.70;99.90;;;;;;5085362;28;20203;-32
2023/08/17 11:16:24;;;;;;;8.57;6.97;;;24.70;99.90;;;;;;5071050;28;20748;-32
2023/08/17 11:18:59;;;;;;;8.70;6.97;;;24.80;99.90;;;;;;5089012;28;20283;-32
2023/08/17 11:21:29;;;;;;;10.07;7.13;;;24.90;99.90;;;;;;5071505;28;20199;-32
2023/08/17 11:24:00;;;;;;;10.50;7.47;;;24.90;99.90;;;;;;5089564;28;20237;-32
2023/08/17 11:26:32;;;;;;;10.73;8.25;;;24.90;99.90;;;;;;5088645;28;20227;-33
2023/08/17 11:29:03;;;;;;;11.00;7.75;;;24.90;99.90;;;;;;5071144;28;20503;-32
2023/08/17 11:31:33;;;;;;;12.07;7.85;;;25.00;99.90;;;;;;5089507;28;20708;-32
2023/08/17 11:34:02;;;;;;;11.50;8.00;;;25.00;99.90;;;;;;5070996;28;20195;-32
2023/08/17 11:36:35;;;;;;;10.07;8.10;;;25.00;99.90;;;;;;5070880;28;20203;-32
2023/08/17 11:39:02;;;;;;;8.88;7.72;;;25.00;99.90;;;;;;5088581;28;20207;-32
2023/08/17 11:41:29;;;;;;;9.68;7.60;;;25.00;99.90;;;;;;5070454;28;20198;-32
2023/08/17 11:43:58;;;;;;;14.18;9.50;;;25.00;99.90;;;;;;5088699;28;20245;-32
2023/08/17 11:46:28;;;;;;;10.40;8.82;;;25.10;99.90;;;;;;5088588;28;20249;-32
2023/08/17 11:48:59;;;;;;;9.95;8.95;;;25.10;99.90;;;;;;5089133;28;20242;-32
2023/08/17 11:51:31;;;;;;;14.30;9.43;;;25.10;99.90;;;;;;5054090;28;20289;-32
2023/08/17 11:54:07;;;;;;;10.07;8.98;;;25.10;99.90;;;;;;5070241;28;20203;-32
2023/08/17 11:56:37;;;;;;;18.25;10.13;;;25.10;99.90;;;;;;5088821;28;20408;-32
2023/08/17 11:59:14;;;;;;;12.13;8.85;;;25.10;99.90;;;;;;5088471;28;20211;-32
2023/08/17 12:01:41;;;;;;;11.95;9.80;;;25.10;99.90;;;;;;5088158;28;20714;-32
2023/08/17 12:04:08;;;;;;;10.48;9.05;;;25.10;99.90;;;;;;5088843;28;20215;-32
2023/08/17 12:06:44;;;;;;;14.13;10.50;;;25.20;99.90;;;;;;5071082;28;20728;-32
2023/08/17 12:09:13;;;;;;;15.10;10.60;;;25.20;99.90;;;;;;5070401;28;20282;-32
2023/08/17 12:11:41;;;;;;;11.50;9.68;;;25.20;99.90;;;;;;5088416;28;20281;-32
2023/08/17 12:14:10;;;;;;;13.60;10.50;;;25.20;99.90;;;;;;5088432;28;20195;-33
2023/08/17 12:16:50;;;;;;;13.15;10.55;;;25.20;99.90;;;;;;5070340;28;20704;-32
2023/08/17 12:19:20;;;;;;;13.43;11.60;;;25.20;99.90;;;;;;5088068;28;20283;-32
2023/08/17 12:21:50;;;;;;;12.57;11.38;;;25.20;99.90;;;;;;5088109;28;20234;-32
2023/08/17 12:24:19;;;;;;;16.95;12.15;;;25.20;99.90;;;;;;5069979;28;20206;-32
2023/08/17 12:26:51;;;;;;;13.63;11.40;;;25.20;99.90;;;;;;5088069;28;20317;-32
2023/08/17 12:29:20;;;;;;;16.15;12.32;;;25.20;99.90;;;;;;5070273;28;20495;-32
2023/08/17 12:32:07;;;;;;;12.70;11.25;;;25.20;99.90;;;;;;5053271;28;20203;-32
2023/08/17 12:34:36;;;;;;;14.68;11.75;;;25.10;99.90;;;;;;5088036;28;20553;-32
2023/08/17 12:37:07;;;;;;;12.98;11.43;;;25.10;99.90;;;;;;5087684;28;20219;-32
2023/08/17 12:39:35;;;;;;;14.32;11.40;;;25.10;99.90;;;;;;5069369;28;20225;-32
2023/08/17 12:42:08;;;;;;;16.08;11.35;;;25.20;99.90;;;;;;5087689;28;20252;-32
2023/08/17 12:44:38;;;;;;;14.23;11.18;;;25.10;99.90;;;;;;5070095;28;20238;-32
2023/08/17 12:47:10;;;;;;;13.77;10.98;;;25.10;99.90;;;;;;5087499;28;20223;-32
2023/08/17 12:49:38;;;;;;;14.55;11.43;;;25.10;99.90;;;;;;5068932;28;20195;-32
2023/08/17 12:52:08;;;;;;;17.85;10.93;;;25.10;99.90;;;;;;5069244;28;20205;-32
2023/08/17 12:54:38;;;;;;;14.85;11.73;;;25.10;99.90;;;;;;5069135;28;20733;-32
2023/08/17 12:57:05;;;;;;;16.80;11.18;;;25.10;99.90;;;;;;5087651;28;20260;-32
2023/08/17 12:59:38;;;;;;;12.07;10.43;;;25.10;99.90;;;;;;5087379;28;20264;-32